sensor_id;sensor_type;location;lat;lon;timestamp;P1;durP1;ratioP1;P2;durP2;ratioP2
11313;SDS011;5712;48.858;9.206;2023-12-14T00:02:23;2.47;;;2.17;;
11313;SDS011;5712;48.858;9.206;2023-12-14T00:04:50;2.87;;;2.13;;
11313;SDS011;5712;48.858;9.206;2023-12-14T00:07:18;3.47;;;2.30;;
11313;SDS011;5712;48.858;9.206;2023-12-14T00:09:44;2.67;;;2.00;;
11313;SDS011;5712;48.858;9.206;2023-12-14T00:12:10;4.03;;;2.50;;
11313;SDS011;5712;48.858;9.206;2023-12-14T00:14:37;3.13;;;2.30;;
11313;SDS011;5712;48.858;9.206;2023-12-14T00:17:03;3.50;;;2.37;;
11313;SDS011;5712;48.858;9.206;2023-12-14T00:19:30;2.77;;;2.13;;
11313;SDS011;5712;48.858;9.206;2023-12-14T00:21:56;2.60;;;2.27;;
11313;SDS011;5712;48.858;9.206;2023-12-14T00:24:24;3.13;;;2.33;;
11313;SDS011;5712;48.858;9.206;2023-12-14T00:26:51;3.23;;;2.50;;
11313;SDS011;5712;48.858;9.206;2023-12-14T00:29:17;2.93;;;2.23;;
11313;SDS011;5712;48.858;9.206;2023-12-14T00:31:44;4.13;;;2.33;;
11313;SDS011;5712;48.858;9.206;2023-12-14T00:34:10;3.40;;;2.30;;
11313;SDS011;5712;48.858;9.206;2023-12-14T00:36:37;2.90;;;2.40;;
11313;SDS011;5712;48.858;9.206;2023-12-14T00:39:03;3.30;;;2.73;;
11313;SDS011;5712;48.858;9.206;2023-12-14T00:41:31;2.97;;;2.40;;
11313;SDS011;5712;48.858;9.206;2023-12-14T00:43:58;2.83;;;2.50;;
11313;SDS011;5712;48.858;9.206;2023-12-14T00:46:24;4.33;;;2.63;;
11313;SDS011;5712;48.858;9.206;2023-12-14T00:48:51;3.33;;;2.83;;
11313;SDS011;5712;48.858;9.206;2023-12-14T00:51:17;4.00;;;2.80;;
11313;SDS011;5712;48.858;9.206;2023-12-14T00:53:44;3.73;;;2.47;;
11313;SDS011;5712;48.858;9.206;2023-12-14T00:56:10;4.23;;;2.40;;
11313;SDS011;5712;48.858;9.206;2023-12-14T00:58:38;4.37;;;2.57;;
11313;SDS011;5712;48.858;9.206;2023-12-14T01:01:05;2.73;;;2.40;;
11313;SDS011;5712;48.858;9.206;2023-12-14T01:03:31;3.40;;;2.60;;
11313;SDS011;5712;48.858;9.206;2023-12-14T01:05:58;3.33;;;2.80;;
11313;SDS011;5712;48.858;9.206;2023-12-14T01:08:24;3.83;;;2.30;;
11313;SDS011;5712;48.858;9.206;2023-12-14T01:10:51;2.90;;;2.30;;
11313;SDS011;5712;48.858;9.206;2023-12-14T01:13:17;5.30;;;2.53;;
11313;SDS011;5712;48.858;9.206;2023-12-14T01:15:45;3.77;;;2.60;;
11313;SDS011;5712;48.858;9.206;2023-12-14T01:18:11;3.47;;;2.50;;
11313;SDS011;5712;48.858;9.206;2023-12-14T01:20:38;3.47;;;2.67;;
11313;SDS011;5712;48.858;9.206;2023-12-14T01:23:05;3.73;;;2.50;;
11313;SDS011;5712;48.858;9.206;2023-12-14T01:25:34;3.00;;;2.43;;
11313;SDS011;5712;48.858;9.206;2023-12-14T01:28:01;4.30;;;2.47;;
11313;SDS011;5712;48.858;9.206;2023-12-14T01:30:27;3.00;;;2.33;;
11313;SDS011;5712;48.858;9.206;2023-12-14T01:32:55;4.13;;;2.67;;
11313;SDS011;5712;48.858;9.206;2023-12-14T01:35:21;2.60;;;2.40;;
11313;SDS011;5712;48.858;9.206;2023-12-14T01:37:49;3.67;;;2.70;;
11313;SDS011;5712;48.858;9.206;2023-12-14T01:40:18;2.70;;;2.13;;
11313;SDS011;5712;48.858;9.206;2023-12-14T01:42:45;7.33;;;2.50;;
11313;SDS011;5712;48.858;9.206;2023-12-14T01:45:12;3.27;;;2.57;;
11313;SDS011;5712;48.858;9.206;2023-12-14T01:47:40;4.60;;;2.83;;
11313;SDS011;5712;48.858;9.206;2023-12-14T01:50:09;3.10;;;2.70;;
11313;SDS011;5712;48.858;9.206;2023-12-14T01:52:35;3.37;;;2.87;;
11313;SDS011;5712;48.858;9.206;2023-12-14T01:55:02;3.43;;;2.80;;
11313;SDS011;5712;48.858;9.206;2023-12-14T01:57:29;2.97;;;2.37;;
11313;SDS011;5712;48.858;9.206;2023-12-14T01:59:55;3.23;;;2.63;;
11313;SDS011;5712;48.858;9.206;2023-12-14T02:02:22;4.00;;;2.87;;
11313;SDS011;5712;48.858;9.206;2023-12-14T02:04:48;3.13;;;2.50;;
11313;SDS011;5712;48.858;9.206;2023-12-14T02:07:16;3.43;;;2.80;;
11313;SDS011;5712;48.858;9.206;2023-12-14T02:09:43;4.10;;;2.90;;
11313;SDS011;5712;48.858;9.206;2023-12-14T02:12:09;4.23;;;2.80;;
11313;SDS011;5712;48.858;9.206;2023-12-14T02:14:35;7.67;;;3.20;;
11313;SDS011;5712;48.858;9.206;2023-12-14T02:17:02;5.70;;;2.90;;
11313;SDS011;5712;48.858;9.206;2023-12-14T02:19:29;3.70;;;2.77;;
11313;SDS011;5712;48.858;9.206;2023-12-14T02:21:55;3.93;;;2.70;;
11313;SDS011;5712;48.858;9.206;2023-12-14T02:24:23;3.53;;;2.87;;
11313;SDS011;5712;48.858;9.206;2023-12-14T02:26:50;5.57;;;2.90;;
11313;SDS011;5712;48.858;9.206;2023-12-14T02:29:16;4.97;;;2.90;;
11313;SDS011;5712;48.858;9.206;2023-12-14T02:31:43;3.23;;;2.67;;
11313;SDS011;5712;48.858;9.206;2023-12-14T02:34:09;3.30;;;2.53;;
11313;SDS011;5712;48.858;9.206;2023-12-14T02:36:36;3.37;;;2.40;;
11313;SDS011;5712;48.858;9.206;2023-12-14T02:39:02;3.67;;;2.70;;
11313;SDS011;5712;48.858;9.206;2023-12-14T02:41:30;3.07;;;2.30;;
11313;SDS011;5712;48.858;9.206;2023-12-14T02:43:56;4.30;;;2.67;;
11313;SDS011;5712;48.858;9.206;2023-12-14T02:46:23;3.20;;;2.47;;
11313;SDS011;5712;48.858;9.206;2023-12-14T02:48:49;4.70;;;2.30;;
11313;SDS011;5712;48.858;9.206;2023-12-14T02:51:16;4.40;;;2.70;;
11313;SDS011;5712;48.858;9.206;2023-12-14T02:53:42;3.97;;;2.53;;
11313;SDS011;5712;48.858;9.206;2023-12-14T02:56:09;3.73;;;2.20;;
11313;SDS011;5712;48.858;9.206;2023-12-14T02:58:37;3.20;;;2.50;;
11313;SDS011;5712;48.858;9.206;2023-12-14T03:01:03;2.67;;;1.93;;
11313;SDS011;5712;48.858;9.206;2023-12-14T03:03:30;2.43;;;1.90;;
11313;SDS011;5712;48.858;9.206;2023-12-14T03:05:57;4.80;;;2.40;;
11313;SDS011;5712;48.858;9.206;2023-12-14T03:08:23;2.00;;;1.80;;
11313;SDS011;5712;48.858;9.206;2023-12-14T03:10:50;2.53;;;2.20;;
11313;SDS011;5712;48.858;9.206;2023-12-14T03:13:16;3.17;;;2.17;;
11313;SDS011;5712;48.858;9.206;2023-12-14T03:15:44;2.50;;;1.97;;
11313;SDS011;5712;48.858;9.206;2023-12-14T03:18:11;3.70;;;2.33;;
11313;SDS011;5712;48.858;9.206;2023-12-14T03:20:38;3.03;;;2.10;;
11313;SDS011;5712;48.858;9.206;2023-12-14T03:23:05;3.87;;;2.20;;
11313;SDS011;5712;48.858;9.206;2023-12-14T03:25:31;2.93;;;2.03;;
11313;SDS011;5712;48.858;9.206;2023-12-14T03:27:58;3.47;;;2.30;;
11313;SDS011;5712;48.858;9.206;2023-12-14T03:30:24;2.73;;;2.20;;
11313;SDS011;5712;48.858;9.206;2023-12-14T03:32:53;3.37;;;2.47;;
11313;SDS011;5712;48.858;9.206;2023-12-14T03:35:19;3.40;;;2.00;;
11313;SDS011;5712;48.858;9.206;2023-12-14T03:37:46;3.10;;;2.30;;
11313;SDS011;5712;48.858;9.206;2023-12-14T03:40:12;2.00;;;1.80;;
11313;SDS011;5712;48.858;9.206;2023-12-14T03:42:39;2.27;;;1.80;;
11313;SDS011;5712;48.858;9.206;2023-12-14T03:45:06;3.60;;;1.90;;
11313;SDS011;5712;48.858;9.206;2023-12-14T03:47:33;3.67;;;2.10;;
11313;SDS011;5712;48.858;9.206;2023-12-14T03:50:00;4.03;;;2.20;;
11313;SDS011;5712;48.858;9.206;2023-12-14T03:52:27;2.23;;;1.90;;
11313;SDS011;5712;48.858;9.206;2023-12-14T03:54:56;3.60;;;2.03;;
11313;SDS011;5712;48.858;9.206;2023-12-14T03:57:22;3.20;;;1.90;;
11313;SDS011;5712;48.858;9.206;2023-12-14T03:59:49;2.40;;;1.90;;
11313;SDS011;5712;48.858;9.206;2023-12-14T04:02:15;2.20;;;1.93;;
11313;SDS011;5712;48.858;9.206;2023-12-14T04:04:42;2.77;;;2.10;;
11313;SDS011;5712;48.858;9.206;2023-12-14T04:07:09;2.10;;;1.77;;
11313;SDS011;5712;48.858;9.206;2023-12-14T04:09:36;2.17;;;1.93;;
11313;SDS011;5712;48.858;9.206;2023-12-14T04:12:03;2.17;;;1.97;;
11313;SDS011;5712;48.858;9.206;2023-12-14T04:14:30;2.47;;;2.10;;
11313;SDS011;5712;48.858;9.206;2023-12-14T04:16:56;2.70;;;2.20;;
11313;SDS011;5712;48.858;9.206;2023-12-14T04:19:23;2.20;;;1.67;;
11313;SDS011;5712;48.858;9.206;2023-12-14T04:21:49;3.47;;;2.20;;
11313;SDS011;5712;48.858;9.206;2023-12-14T04:24:17;3.20;;;1.90;;
11313;SDS011;5712;48.858;9.206;2023-12-14T04:26:43;3.67;;;2.17;;
11313;SDS011;5712;48.858;9.206;2023-12-14T04:29:10;6.63;;;2.17;;
11313;SDS011;5712;48.858;9.206;2023-12-14T04:31:36;3.57;;;2.20;;
11313;SDS011;5712;48.858;9.206;2023-12-14T04:34:03;3.70;;;2.07;;
11313;SDS011;5712;48.858;9.206;2023-12-14T04:36:29;2.70;;;2.20;;
11313;SDS011;5712;48.858;9.206;2023-12-14T04:38:56;2.63;;;1.90;;
11313;SDS011;5712;48.858;9.206;2023-12-14T04:41:23;3.03;;;2.07;;
11313;SDS011;5712;48.858;9.206;2023-12-14T04:43:50;3.07;;;2.37;;
11313;SDS011;5712;48.858;9.206;2023-12-14T04:46:16;3.30;;;2.10;;
11313;SDS011;5712;48.858;9.206;2023-12-14T04:48:43;4.27;;;2.60;;
11313;SDS011;5712;48.858;9.206;2023-12-14T04:51:11;3.40;;;2.30;;
11313;SDS011;5712;48.858;9.206;2023-12-14T04:53:38;3.77;;;2.40;;
11313;SDS011;5712;48.858;9.206;2023-12-14T04:56:05;3.20;;;2.70;;
11313;SDS011;5712;48.858;9.206;2023-12-14T04:58:36;3.27;;;2.63;;
11313;SDS011;5712;48.858;9.206;2023-12-14T05:01:03;2.77;;;2.27;;
11313;SDS011;5712;48.858;9.206;2023-12-14T05:03:30;3.70;;;2.27;;
11313;SDS011;5712;48.858;9.206;2023-12-14T05:05:56;3.87;;;2.00;;
11313;SDS011;5712;48.858;9.206;2023-12-14T05:08:22;4.03;;;2.47;;
11313;SDS011;5712;48.858;9.206;2023-12-14T05:10:49;3.33;;;2.40;;
11313;SDS011;5712;48.858;9.206;2023-12-14T05:13:16;4.60;;;2.47;;
11313;SDS011;5712;48.858;9.206;2023-12-14T05:15:43;2.50;;;2.03;;
11313;SDS011;5712;48.858;9.206;2023-12-14T05:18:10;3.17;;;2.60;;
11313;SDS011;5712;48.858;9.206;2023-12-14T05:20:36;4.57;;;2.13;;
11313;SDS011;5712;48.858;9.206;2023-12-14T05:23:03;2.93;;;2.37;;
11313;SDS011;5712;48.858;9.206;2023-12-14T05:25:29;2.40;;;2.20;;
11313;SDS011;5712;48.858;9.206;2023-12-14T05:27:56;4.47;;;2.27;;
11313;SDS011;5712;48.858;9.206;2023-12-14T05:30:22;3.67;;;2.47;;
11313;SDS011;5712;48.858;9.206;2023-12-14T05:32:50;3.50;;;2.70;;
11313;SDS011;5712;48.858;9.206;2023-12-14T05:35:17;2.97;;;2.23;;
11313;SDS011;5712;48.858;9.206;2023-12-14T05:37:43;3.13;;;2.50;;
11313;SDS011;5712;48.858;9.206;2023-12-14T05:40:10;3.43;;;2.57;;
11313;SDS011;5712;48.858;9.206;2023-12-14T05:42:37;4.83;;;2.97;;
11313;SDS011;5712;48.858;9.206;2023-12-14T05:45:04;6.23;;;3.10;;
11313;SDS011;5712;48.858;9.206;2023-12-14T05:47:31;4.07;;;2.83;;
11313;SDS011;5712;48.858;9.206;2023-12-14T05:50:00;4.67;;;2.93;;
11313;SDS011;5712;48.858;9.206;2023-12-14T05:52:27;4.87;;;2.70;;
11313;SDS011;5712;48.858;9.206;2023-12-14T05:54:54;5.03;;;2.93;;
11313;SDS011;5712;48.858;9.206;2023-12-14T05:57:21;4.20;;;3.20;;
11313;SDS011;5712;48.858;9.206;2023-12-14T05:59:49;4.00;;;3.00;;
11313;SDS011;5712;48.858;9.206;2023-12-14T06:02:16;4.30;;;3.20;;
11313;SDS011;5712;48.858;9.206;2023-12-14T06:04:42;4.90;;;3.13;;
11313;SDS011;5712;48.858;9.206;2023-12-14T06:07:18;6.13;;;3.40;;
11313;SDS011;5712;48.858;9.206;2023-12-14T06:09:44;5.57;;;3.77;;
11313;SDS011;5712;48.858;9.206;2023-12-14T06:12:11;5.53;;;3.83;;
11313;SDS011;5712;48.858;9.206;2023-12-14T06:14:38;3.97;;;3.30;;
11313;SDS011;5712;48.858;9.206;2023-12-14T06:17:04;5.97;;;3.83;;
11313;SDS011;5712;48.858;9.206;2023-12-14T06:19:31;5.70;;;3.80;;
11313;SDS011;5712;48.858;9.206;2023-12-14T06:21:58;5.87;;;3.63;;
11313;SDS011;5712;48.858;9.206;2023-12-14T06:24:26;6.03;;;3.90;;
11313;SDS011;5712;48.858;9.206;2023-12-14T06:26:52;7.03;;;4.43;;
11313;SDS011;5712;48.858;9.206;2023-12-14T06:29:18;6.70;;;3.90;;
11313;SDS011;5712;48.858;9.206;2023-12-14T06:31:45;6.10;;;4.30;;
11313;SDS011;5712;48.858;9.206;2023-12-14T06:34:12;5.63;;;4.07;;
11313;SDS011;5712;48.858;9.206;2023-12-14T06:36:41;5.90;;;4.07;;
11313;SDS011;5712;48.858;9.206;2023-12-14T06:39:08;6.17;;;4.10;;
11313;SDS011;5712;48.858;9.206;2023-12-14T06:41:37;6.70;;;4.50;;
11313;SDS011;5712;48.858;9.206;2023-12-14T06:44:04;5.40;;;3.93;;
11313;SDS011;5712;48.858;9.206;2023-12-14T06:46:30;5.30;;;3.80;;
11313;SDS011;5712;48.858;9.206;2023-12-14T06:48:57;7.47;;;4.60;;
11313;SDS011;5712;48.858;9.206;2023-12-14T06:51:23;6.57;;;4.27;;
11313;SDS011;5712;48.858;9.206;2023-12-14T06:53:50;7.00;;;4.43;;
11313;SDS011;5712;48.858;9.206;2023-12-14T06:56:17;7.70;;;4.80;;
11313;SDS011;5712;48.858;9.206;2023-12-14T06:58:45;7.07;;;4.77;;
11313;SDS011;5712;48.858;9.206;2023-12-14T07:01:14;8.23;;;4.77;;
11313;SDS011;5712;48.858;9.206;2023-12-14T07:03:41;7.97;;;4.80;;
11313;SDS011;5712;48.858;9.206;2023-12-14T07:06:11;9.97;;;5.00;;
11313;SDS011;5712;48.858;9.206;2023-12-14T07:08:38;9.37;;;5.20;;
11313;SDS011;5712;48.858;9.206;2023-12-14T07:11:05;8.63;;;5.30;;
11313;SDS011;5712;48.858;9.206;2023-12-14T07:13:32;10.57;;;6.20;;
11313;SDS011;5712;48.858;9.206;2023-12-14T07:15:59;10.63;;;5.70;;
11313;SDS011;5712;48.858;9.206;2023-12-14T07:18:26;11.17;;;6.57;;
11313;SDS011;5712;48.858;9.206;2023-12-14T07:20:52;11.23;;;6.40;;
11313;SDS011;5712;48.858;9.206;2023-12-14T07:23:19;11.67;;;6.53;;
11313;SDS011;5712;48.858;9.206;2023-12-14T07:25:45;10.97;;;6.30;;
11313;SDS011;5712;48.858;9.206;2023-12-14T07:28:12;10.47;;;5.77;;
11313;SDS011;5712;48.858;9.206;2023-12-14T07:30:38;12.33;;;6.60;;
11313;SDS011;5712;48.858;9.206;2023-12-14T07:33:06;12.70;;;6.80;;
11313;SDS011;5712;48.858;9.206;2023-12-14T07:35:32;9.93;;;6.03;;
11313;SDS011;5712;48.858;9.206;2023-12-14T07:37:59;10.30;;;6.40;;
11313;SDS011;5712;48.858;9.206;2023-12-14T07:40:25;11.47;;;7.13;;
11313;SDS011;5712;48.858;9.206;2023-12-14T07:42:52;11.87;;;6.83;;
11313;SDS011;5712;48.858;9.206;2023-12-14T07:45:20;11.90;;;6.53;;
11313;SDS011;5712;48.858;9.206;2023-12-14T07:47:47;11.17;;;6.60;;
11313;SDS011;5712;48.858;9.206;2023-12-14T07:50:15;11.13;;;6.33;;
11313;SDS011;5712;48.858;9.206;2023-12-14T07:52:41;13.07;;;8.07;;
11313;SDS011;5712;48.858;9.206;2023-12-14T07:55:08;10.07;;;6.43;;
11313;SDS011;5712;48.858;9.206;2023-12-14T07:57:34;10.10;;;6.13;;
11313;SDS011;5712;48.858;9.206;2023-12-14T08:00:01;9.30;;;5.83;;
11313;SDS011;5712;48.858;9.206;2023-12-14T08:02:29;9.40;;;5.80;;
11313;SDS011;5712;48.858;9.206;2023-12-14T08:04:55;7.40;;;4.83;;
11313;SDS011;5712;48.858;9.206;2023-12-14T08:07:23;9.67;;;5.70;;
11313;SDS011;5712;48.858;9.206;2023-12-14T08:09:54;9.68;;;5.80;;
11313;SDS011;5712;48.858;9.206;2023-12-14T08:12:20;8.53;;;5.73;;
11313;SDS011;5712;48.858;9.206;2023-12-14T08:14:47;10.30;;;5.97;;
11313;SDS011;5712;48.858;9.206;2023-12-14T08:17:13;9.43;;;6.07;;
11313;SDS011;5712;48.858;9.206;2023-12-14T08:19:40;11.23;;;6.40;;
11313;SDS011;5712;48.858;9.206;2023-12-14T08:22:07;11.10;;;6.63;;
11313;SDS011;5712;48.858;9.206;2023-12-14T08:24:38;12.30;;;8.07;;
11313;SDS011;5712;48.858;9.206;2023-12-14T08:27:05;15.77;;;9.10;;
11313;SDS011;5712;48.858;9.206;2023-12-14T08:29:32;15.60;;;9.77;;
11313;SDS011;5712;48.858;9.206;2023-12-14T08:31:58;15.30;;;8.63;;
11313;SDS011;5712;48.858;9.206;2023-12-14T08:34:26;13.97;;;7.70;;
11313;SDS011;5712;48.858;9.206;2023-12-14T08:36:53;12.93;;;7.60;;
11313;SDS011;5712;48.858;9.206;2023-12-14T08:39:19;12.40;;;7.73;;
11313;SDS011;5712;48.858;9.206;2023-12-14T08:41:47;13.50;;;7.93;;
11313;SDS011;5712;48.858;9.206;2023-12-14T08:44:14;13.17;;;7.60;;
11313;SDS011;5712;48.858;9.206;2023-12-14T08:46:41;16.20;;;9.43;;
11313;SDS011;5712;48.858;9.206;2023-12-14T08:49:08;14.80;;;8.27;;
11313;SDS011;5712;48.858;9.206;2023-12-14T08:51:35;14.33;;;8.43;;
11313;SDS011;5712;48.858;9.206;2023-12-14T08:54:01;10.93;;;7.37;;
11313;SDS011;5712;48.858;9.206;2023-12-14T08:56:28;17.13;;;9.53;;
11313;SDS011;5712;48.858;9.206;2023-12-14T08:58:55;15.00;;;8.70;;
11313;SDS011;5712;48.858;9.206;2023-12-14T09:01:22;15.40;;;8.70;;
11313;SDS011;5712;48.858;9.206;2023-12-14T09:03:49;15.27;;;8.53;;
11313;SDS011;5712;48.858;9.206;2023-12-14T09:06:16;13.27;;;8.70;;
11313;SDS011;5712;48.858;9.206;2023-12-14T09:08:43;13.83;;;8.47;;
11313;SDS011;5712;48.858;9.206;2023-12-14T09:11:10;16.10;;;8.00;;
11313;SDS011;5712;48.858;9.206;2023-12-14T09:13:36;12.97;;;7.90;;
11313;SDS011;5712;48.858;9.206;2023-12-14T09:16:04;14.37;;;8.50;;
11313;SDS011;5712;48.858;9.206;2023-12-14T09:18:32;13.33;;;8.23;;
11313;SDS011;5712;48.858;9.206;2023-12-14T09:20:58;15.30;;;8.87;;
11313;SDS011;5712;48.858;9.206;2023-12-14T09:23:25;14.57;;;8.80;;
11313;SDS011;5712;48.858;9.206;2023-12-14T09:25:51;16.00;;;8.57;;
11313;SDS011;5712;48.858;9.206;2023-12-14T09:28:18;14.43;;;9.00;;
11313;SDS011;5712;48.858;9.206;2023-12-14T09:30:44;14.30;;;8.73;;
11313;SDS011;5712;48.858;9.206;2023-12-14T09:33:12;15.17;;;8.77;;
11313;SDS011;5712;48.858;9.206;2023-12-14T09:35:39;15.30;;;9.27;;
11313;SDS011;5712;48.858;9.206;2023-12-14T09:38:06;15.30;;;8.77;;
11313;SDS011;5712;48.858;9.206;2023-12-14T09:40:33;15.23;;;9.60;;
11313;SDS011;5712;48.858;9.206;2023-12-14T09:43:00;15.37;;;8.90;;
11313;SDS011;5712;48.858;9.206;2023-12-14T09:45:28;17.30;;;9.00;;
11313;SDS011;5712;48.858;9.206;2023-12-14T09:47:55;14.93;;;8.97;;
11313;SDS011;5712;48.858;9.206;2023-12-14T09:50:24;15.20;;;9.40;;
11313;SDS011;5712;48.858;9.206;2023-12-14T09:52:51;14.50;;;8.50;;
11313;SDS011;5712;48.858;9.206;2023-12-14T09:55:17;12.83;;;8.53;;
11313;SDS011;5712;48.858;9.206;2023-12-14T09:57:44;13.37;;;8.17;;
11313;SDS011;5712;48.858;9.206;2023-12-14T10:00:11;12.47;;;7.63;;
11313;SDS011;5712;48.858;9.206;2023-12-14T10:02:39;15.73;;;9.23;;
11313;SDS011;5712;48.858;9.206;2023-12-14T10:05:09;14.23;;;8.30;;
11313;SDS011;5712;48.858;9.206;2023-12-14T10:07:39;15.33;;;9.27;;
11313;SDS011;5712;48.858;9.206;2023-12-14T10:10:11;13.97;;;8.27;;
11313;SDS011;5712;48.858;9.206;2023-12-14T10:12:50;13.70;;;7.67;;
11313;SDS011;5712;48.858;9.206;2023-12-14T10:15:17;12.77;;;8.23;;
11313;SDS011;5712;48.858;9.206;2023-12-14T10:17:44;13.80;;;8.30;;
11313;SDS011;5712;48.858;9.206;2023-12-14T10:20:18;11.23;;;7.43;;
11313;SDS011;5712;48.858;9.206;2023-12-14T10:22:48;11.50;;;7.57;;
11313;SDS011;5712;48.858;9.206;2023-12-14T10:25:15;10.73;;;6.53;;
11313;SDS011;5712;48.858;9.206;2023-12-14T10:27:45;14.43;;;7.90;;
11313;SDS011;5712;48.858;9.206;2023-12-14T10:30:13;11.23;;;6.33;;
11313;SDS011;5712;48.858;9.206;2023-12-14T10:32:40;12.67;;;7.03;;
11313;SDS011;5712;48.858;9.206;2023-12-14T10:35:07;9.83;;;6.43;;
11313;SDS011;5712;48.858;9.206;2023-12-14T10:37:34;10.17;;;6.97;;
11313;SDS011;5712;48.858;9.206;2023-12-14T10:40:05;9.53;;;6.10;;
11313;SDS011;5712;48.858;9.206;2023-12-14T10:42:35;9.30;;;6.73;;
11313;SDS011;5712;48.858;9.206;2023-12-14T10:45:03;9.80;;;5.83;;
11313;SDS011;5712;48.858;9.206;2023-12-14T10:47:30;10.63;;;6.10;;
11313;SDS011;5712;48.858;9.206;2023-12-14T10:49:56;8.70;;;5.70;;
11313;SDS011;5712;48.858;9.206;2023-12-14T10:52:26;9.80;;;6.17;;
11313;SDS011;5712;48.858;9.206;2023-12-14T10:54:56;7.00;;;5.23;;
11313;SDS011;5712;48.858;9.206;2023-12-14T10:57:28;11.67;;;6.57;;
11313;SDS011;5712;48.858;9.206;2023-12-14T10:59:57;9.33;;;6.03;;
11313;SDS011;5712;48.858;9.206;2023-12-14T11:02:24;10.03;;;5.73;;
11313;SDS011;5712;48.858;9.206;2023-12-14T11:04:54;7.83;;;5.70;;
11313;SDS011;5712;48.858;9.206;2023-12-14T11:10:09;15.50;;;5.30;;
11313;SDS011;5712;48.858;9.206;2023-12-14T11:12:38;9.73;;;6.27;;
11313;SDS011;5712;48.858;9.206;2023-12-14T11:15:16;20.40;;;10.53;;
11313;SDS011;5712;48.858;9.206;2023-12-14T11:17:43;8.93;;;6.30;;
11313;SDS011;5712;48.858;9.206;2023-12-14T11:20:30;8.93;;;6.17;;
11313;SDS011;5712;48.858;9.206;2023-12-14T11:22:57;9.10;;;5.77;;
11313;SDS011;5712;48.858;9.206;2023-12-14T11:25:33;7.80;;;5.60;;
11313;SDS011;5712;48.858;9.206;2023-12-14T11:28:04;9.63;;;6.10;;
11313;SDS011;5712;48.858;9.206;2023-12-14T11:30:33;10.27;;;6.30;;
11313;SDS011;5712;48.858;9.206;2023-12-14T11:32:59;9.67;;;6.03;;
11313;SDS011;5712;48.858;9.206;2023-12-14T11:35:25;7.80;;;5.30;;
11313;SDS011;5712;48.858;9.206;2023-12-14T11:37:52;10.27;;;6.37;;
11313;SDS011;5712;48.858;9.206;2023-12-14T11:40:21;11.00;;;6.67;;
11313;SDS011;5712;48.858;9.206;2023-12-14T11:42:56;9.73;;;6.27;;
11313;SDS011;5712;48.858;9.206;2023-12-14T11:45:33;10.30;;;6.33;;
11313;SDS011;5712;48.858;9.206;2023-12-14T11:48:01;11.87;;;6.87;;
11313;SDS011;5712;48.858;9.206;2023-12-14T11:50:30;12.33;;;6.97;;
11313;SDS011;5712;48.858;9.206;2023-12-14T11:52:57;8.60;;;6.83;;
11313;SDS011;5712;48.858;9.206;2023-12-14T11:55:24;12.87;;;6.87;;
11313;SDS011;5712;48.858;9.206;2023-12-14T11:57:50;14.50;;;7.13;;
11313;SDS011;5712;48.858;9.206;2023-12-14T12:00:17;10.07;;;5.77;;
11313;SDS011;5712;48.858;9.206;2023-12-14T12:02:50;8.13;;;6.20;;
11313;SDS011;5712;48.858;9.206;2023-12-14T12:05:16;9.47;;;5.43;;
11313;SDS011;5712;48.858;9.206;2023-12-14T12:07:44;7.80;;;5.33;;
11313;SDS011;5712;48.858;9.206;2023-12-14T12:10:11;7.57;;;5.40;;
11313;SDS011;5712;48.858;9.206;2023-12-14T12:12:37;8.67;;;4.70;;
11313;SDS011;5712;48.858;9.206;2023-12-14T12:15:04;6.63;;;4.30;;
11313;SDS011;5712;48.858;9.206;2023-12-14T12:17:31;8.23;;;4.70;;
11313;SDS011;5712;48.858;9.206;2023-12-14T12:20:03;6.53;;;4.37;;
11313;SDS011;5712;48.858;9.206;2023-12-14T12:22:30;7.93;;;4.60;;
11313;SDS011;5712;48.858;9.206;2023-12-14T12:24:57;6.47;;;4.97;;
11313;SDS011;5712;48.858;9.206;2023-12-14T12:27:25;6.70;;;4.80;;
11313;SDS011;5712;48.858;9.206;2023-12-14T12:29:52;6.77;;;4.50;;
11313;SDS011;5712;48.858;9.206;2023-12-14T12:32:19;8.37;;;5.17;;
11313;SDS011;5712;48.858;9.206;2023-12-14T12:34:46;6.87;;;4.40;;
11313;SDS011;5712;48.858;9.206;2023-12-14T12:37:13;6.17;;;3.10;;
11313;SDS011;5712;48.858;9.206;2023-12-14T12:39:40;4.53;;;3.10;;
11313;SDS011;5712;48.858;9.206;2023-12-14T12:42:06;10.52;;;7.13;;
11313;SDS011;5712;48.858;9.206;2023-12-14T12:44:33;5.70;;;3.73;;
11313;SDS011;5712;48.858;9.206;2023-12-14T12:46:59;5.57;;;3.83;;
11313;SDS011;5712;48.858;9.206;2023-12-14T12:49:26;5.50;;;3.90;;
11313;SDS011;5712;48.858;9.206;2023-12-14T12:51:53;6.60;;;3.90;;
11313;SDS011;5712;48.858;9.206;2023-12-14T12:54:20;5.13;;;3.20;;
11313;SDS011;5712;48.858;9.206;2023-12-14T12:56:47;4.83;;;3.53;;
11313;SDS011;5712;48.858;9.206;2023-12-14T12:59:13;3.90;;;3.10;;
11313;SDS011;5712;48.858;9.206;2023-12-14T13:01:40;5.47;;;3.80;;
11313;SDS011;5712;48.858;9.206;2023-12-14T13:04:17;4.47;;;3.43;;
11313;SDS011;5712;48.858;9.206;2023-12-14T13:06:44;4.33;;;3.40;;
11313;SDS011;5712;48.858;9.206;2023-12-14T13:09:10;6.97;;;4.88;;
11313;SDS011;5712;48.858;9.206;2023-12-14T13:11:39;4.60;;;3.50;;
11313;SDS011;5712;48.858;9.206;2023-12-14T13:14:05;6.53;;;4.37;;
11313;SDS011;5712;48.858;9.206;2023-12-14T13:16:32;5.40;;;3.23;;
11313;SDS011;5712;48.858;9.206;2023-12-14T13:18:59;4.60;;;3.77;;
11313;SDS011;5712;48.858;9.206;2023-12-14T13:21:26;4.37;;;3.57;;
11313;SDS011;5712;48.858;9.206;2023-12-14T13:23:52;5.97;;;3.60;;
11313;SDS011;5712;48.858;9.206;2023-12-14T13:26:19;6.30;;;3.57;;
11313;SDS011;5712;48.858;9.206;2023-12-14T13:28:47;6.77;;;3.80;;
11313;SDS011;5712;48.858;9.206;2023-12-14T13:31:13;7.13;;;4.47;;
11313;SDS011;5712;48.858;9.206;2023-12-14T13:33:40;7.60;;;4.30;;
11313;SDS011;5712;48.858;9.206;2023-12-14T13:36:09;7.43;;;4.90;;
11313;SDS011;5712;48.858;9.206;2023-12-14T13:38:37;6.37;;;4.03;;
11313;SDS011;5712;48.858;9.206;2023-12-14T13:41:02;7.23;;;4.20;;
11313;SDS011;5712;48.858;9.206;2023-12-14T13:43:29;5.20;;;3.60;;
11313;SDS011;5712;48.858;9.206;2023-12-14T13:45:57;4.07;;;2.70;;
11313;SDS011;5712;48.858;9.206;2023-12-14T13:48:23;3.60;;;2.50;;
11313;SDS011;5712;48.858;9.206;2023-12-14T13:50:50;4.40;;;2.83;;
11313;SDS011;5712;48.858;9.206;2023-12-14T13:53:16;4.00;;;2.70;;
11313;SDS011;5712;48.858;9.206;2023-12-14T13:55:43;5.00;;;2.90;;
11313;SDS011;5712;48.858;9.206;2023-12-14T13:58:10;4.83;;;3.13;;
11313;SDS011;5712;48.858;9.206;2023-12-14T14:00:36;6.03;;;3.60;;
11313;SDS011;5712;48.858;9.206;2023-12-14T14:03:05;4.37;;;3.13;;
11313;SDS011;5712;48.858;9.206;2023-12-14T14:05:31;5.77;;;3.70;;
11313;SDS011;5712;48.858;9.206;2023-12-14T14:07:58;6.53;;;3.80;;
11313;SDS011;5712;48.858;9.206;2023-12-14T14:10:25;5.93;;;3.63;;
11313;SDS011;5712;48.858;9.206;2023-12-14T14:12:51;6.30;;;4.30;;
11313;SDS011;5712;48.858;9.206;2023-12-14T14:15:18;8.15;;;5.82;;
11313;SDS011;5712;48.858;9.206;2023-12-14T14:17:46;8.57;;;5.37;;
11313;SDS011;5712;48.858;9.206;2023-12-14T14:20:18;7.03;;;4.97;;
11313;SDS011;5712;48.858;9.206;2023-12-14T14:22:44;8.57;;;5.07;;
11313;SDS011;5712;48.858;9.206;2023-12-14T14:25:11;10.17;;;5.70;;
11313;SDS011;5712;48.858;9.206;2023-12-14T14:27:37;9.87;;;5.37;;
11313;SDS011;5712;48.858;9.206;2023-12-14T14:30:06;8.00;;;5.67;;
11313;SDS011;5712;48.858;9.206;2023-12-14T14:32:33;9.13;;;5.70;;
11313;SDS011;5712;48.858;9.206;2023-12-14T14:35:02;10.57;;;6.10;;
11313;SDS011;5712;48.858;9.206;2023-12-14T14:37:31;8.50;;;5.53;;
11313;SDS011;5712;48.858;9.206;2023-12-14T14:39:57;10.70;;;6.20;;
11313;SDS011;5712;48.858;9.206;2023-12-14T14:42:24;8.93;;;6.23;;
11313;SDS011;5712;48.858;9.206;2023-12-14T14:44:50;9.77;;;6.13;;
11313;SDS011;5712;48.858;9.206;2023-12-14T14:47:17;9.90;;;6.10;;
11313;SDS011;5712;48.858;9.206;2023-12-14T14:49:43;12.10;;;6.37;;
11313;SDS011;5712;48.858;9.206;2023-12-14T14:52:10;10.30;;;6.30;;
11313;SDS011;5712;48.858;9.206;2023-12-14T14:54:38;10.13;;;6.60;;
11313;SDS011;5712;48.858;9.206;2023-12-14T14:57:05;8.97;;;6.17;;
11313;SDS011;5712;48.858;9.206;2023-12-14T14:59:32;10.63;;;7.07;;
11313;SDS011;5712;48.858;9.206;2023-12-14T15:01:58;10.73;;;6.70;;